createdAt,value
2018-01-22T00:00:58.822Z,6.43
2018-01-22T00:03:27.502Z,6.30
2018-01-22T00:05:56.219Z,6.31
2018-01-22T00:08:26.229Z,6.52
2018-01-22T00:10:55.507Z,6.69
2018-01-22T00:13:24.058Z,6.44
2018-01-22T00:15:52.716Z,6.54
2018-01-22T00:18:22.066Z,6.69
2018-01-22T00:20:50.859Z,6.83
2018-01-22T00:23:19.339Z,6.77
2018-01-22T00:25:48.575Z,6.75
2018-01-22T00:28:17.275Z,7.09
2018-01-22T00:30:46.534Z,7.27
2018-01-22T00:33:15.015Z,7.32
2018-01-22T00:35:43.911Z,7.47
2018-01-22T00:38:13.903Z,7.46
2018-01-22T00:40:42.539Z,7.69
2018-01-22T00:43:11.995Z,7.97
2018-01-22T00:45:40.473Z,7.39
2018-01-22T00:48:09.031Z,7.72
2018-01-22T00:50:38.519Z,7.56
2018-01-22T00:53:07.771Z,7.58
2018-01-22T00:55:36.455Z,7.95
2018-01-22T00:58:05.131Z,7.84
2018-01-22T01:00:33.610Z,7.88
2018-01-22T01:03:02.248Z,7.64
2018-01-22T01:05:31.844Z,7.63
2018-01-22T01:08:00.331Z,7.98
2018-01-22T01:10:28.806Z,7.72
2018-01-22T01:12:57.522Z,7.98
2018-01-22T01:15:26.248Z,7.95
2018-01-22T01:17:54.728Z,8.04
2018-01-22T01:20:23.620Z,7.98
2018-01-22T01:22:52.100Z,7.75
2018-01-22T01:25:20.732Z,8.00
2018-01-22T01:27:50.202Z,7.71
2018-01-22T01:30:18.763Z,7.68
2018-01-22T01:32:47.243Z,7.81
2018-01-22T01:35:15.770Z,7.62
2018-01-22T01:37:44.249Z,7.66
2018-01-22T01:40:13.009Z,7.67
2018-01-22T01:42:41.891Z,7.90
2018-01-22T01:45:10.370Z,7.91
2018-01-22T01:47:38.904Z,7.89
2018-01-22T01:50:07.611Z,7.82
2018-01-22T01:52:36.094Z,7.68
2018-01-22T01:55:04.772Z,7.87
2018-01-22T01:57:33.535Z,7.57
2018-01-22T02:00:02.783Z,7.84
2018-01-22T02:02:31.424Z,7.98
2018-01-22T02:05:00.854Z,8.11
2018-01-22T02:07:29.336Z,7.97
2018-01-22T02:09:57.822Z,8.12
2018-01-22T02:12:26.638Z,7.95
2018-01-22T02:14:55.119Z,7.68
2018-01-22T02:17:23.812Z,7.65
2018-01-22T02:19:52.397Z,7.75
2018-01-22T02:22:20.899Z,7.78
2018-01-22T02:24:49.371Z,7.65
2018-01-22T02:27:17.927Z,7.82
2018-01-22T02:29:46.398Z,7.49
2018-01-22T02:32:15.006Z,7.62
2018-01-22T02:34:43.626Z,7.45
2018-01-22T02:37:13.070Z,7.42
2018-01-22T02:39:41.547Z,7.48
2018-01-22T02:42:10.289Z,7.47
2018-01-22T02:44:38.774Z,7.31
2018-01-22T02:47:08.022Z,7.44
2018-01-22T02:49:36.787Z,7.49
2018-01-22T02:52:05.263Z,7.50
2018-01-22T02:54:33.943Z,7.56
2018-01-22T02:57:02.499Z,7.55
2018-01-22T02:59:32.589Z,7.65
2018-01-22T03:02:01.171Z,7.66
2018-01-22T03:04:29.842Z,7.53
2018-01-22T03:06:58.452Z,7.71
2018-01-22T03:09:26.930Z,7.68
2018-01-22T03:11:55.842Z,7.74
2018-01-22T03:14:24.382Z,7.75
2018-01-22T03:16:52.882Z,7.70
2018-01-22T03:19:21.406Z,7.80
2018-01-22T03:21:50.715Z,7.70
2018-01-22T03:24:19.958Z,7.67
2018-01-22T03:26:48.487Z,7.78
2018-01-22T03:29:17.728Z,7.89
2018-01-22T03:31:46.199Z,7.38
2018-01-22T03:34:15.784Z,7.65
2018-01-22T03:36:45.085Z,7.67
2018-01-22T03:39:14.331Z,7.50
2018-01-22T03:41:43.211Z,7.46
2018-01-22T03:44:11.752Z,7.48
2018-01-22T03:46:40.992Z,7.59
2018-01-22T03:49:09.872Z,7.57
2018-01-22T03:51:38.428Z,7.18
2018-01-22T03:54:07.667Z,7.38
2018-01-22T03:56:36.407Z,7.25
2018-01-22T03:59:05.654Z,7.19
2018-01-22T04:01:34.139Z,7.17
2018-01-22T04:04:02.820Z,6.90
2018-01-22T04:06:31.303Z,6.82
2018-01-22T04:08:59.783Z,6.56
2018-01-22T04:11:28.578Z,6.65
2018-01-22T04:13:57.119Z,6.55
2018-01-22T04:16:25.660Z,6.63
2018-01-22T04:18:54.283Z,6.68
2018-01-22T04:21:23.592Z,6.75
2018-01-22T04:23:52.077Z,6.72
2018-01-22T04:26:20.710Z,6.53
2018-01-22T04:28:49.186Z,6.50
2018-01-22T04:31:17.662Z,6.80
2018-01-22T04:33:46.370Z,6.65
2018-01-22T04:36:14.887Z,6.57
2018-01-22T04:38:43.367Z,6.32
2018-01-22T04:41:11.876Z,6.32
2018-01-22T04:43:40.364Z,6.40
2018-01-22T04:46:08.851Z,6.33
2018-01-22T04:48:37.567Z,6.11
2018-01-22T04:51:06.046Z,6.16
2018-01-22T04:53:34.542Z,6.17
2018-01-22T04:56:04.051Z,6.09
2018-01-22T04:58:33.287Z,6.13
2018-01-22T05:01:01.831Z,6.17
2018-01-22T05:03:31.444Z,6.24
2018-01-22T05:06:00.751Z,6.18
2018-01-22T05:08:29.290Z,6.28
2018-01-22T05:10:57.983Z,6.42
2018-01-22T05:13:26.495Z,6.16
2018-01-22T05:15:55.778Z,6.40
2018-01-22T05:18:25.282Z,6.21
2018-01-22T05:20:54.544Z,6.47
2018-01-22T05:23:23.023Z,6.34
2018-01-22T05:25:51.831Z,6.28
2018-01-22T05:28:20.400Z,6.41
2018-01-22T05:30:49.750Z,6.65
2018-01-22T05:33:19.047Z,6.46
2018-01-22T05:35:48.386Z,6.75
2018-01-22T05:38:16.911Z,6.71
2018-01-22T05:40:45.530Z,6.54
2018-01-22T05:43:14.072Z,6.73
2018-01-22T05:45:42.619Z,6.70
2018-01-22T05:48:11.231Z,6.89
2018-01-22T05:50:39.771Z,6.80
2018-01-22T05:53:08.251Z,6.72
2018-01-22T05:55:36.804Z,6.99
2018-01-22T05:58:06.079Z,6.75
2018-01-22T06:00:34.594Z,6.74
2018-01-22T06:03:04.082Z,7.05
2018-01-22T06:05:33.334Z,6.95
2018-01-22T06:08:01.807Z,7.16
2018-01-22T06:10:30.718Z,6.79
2018-01-22T06:12:59.195Z,6.92
2018-01-22T06:15:27.752Z,7.04
2018-01-22T06:17:56.320Z,7.26
2018-01-22T06:20:25.566Z,6.97
2018-01-22T06:22:54.047Z,7.27
2018-01-22T06:25:22.632Z,7.14
2018-01-22T06:27:51.209Z,7.09
2018-01-22T06:30:19.699Z,7.20
2018-01-22T06:32:48.481Z,7.18
2018-01-22T06:35:16.961Z,7.32
2018-01-22T06:37:45.442Z,7.46
2018-01-22T06:40:14.006Z,7.44
2018-01-22T06:42:42.560Z,7.50
2018-01-22T06:45:11.861Z,7.53
2018-01-22T06:47:41.211Z,7.42
2018-01-22T06:50:15.404Z,7.47
2018-01-22T06:52:44.014Z,7.46
2018-01-22T06:55:12.547Z,7.49
2018-01-22T06:57:41.855Z,7.60
2018-01-22T07:00:11.171Z,7.68
2018-01-22T07:02:39.659Z,7.63
2018-01-22T07:05:08.223Z,7.81
2018-01-22T07:07:36.763Z,7.66
2018-01-22T07:10:05.243Z,7.52
2018-01-22T07:12:34.004Z,7.65
2018-01-22T07:15:02.487Z,7.72
2018-01-22T07:17:30.966Z,7.70
2018-01-22T07:19:59.788Z,7.66
2018-01-22T07:22:28.271Z,7.59
2018-01-22T07:24:56.821Z,7.61
2018-01-22T07:27:25.685Z,7.65
2018-01-22T07:29:54.174Z,7.75
2018-01-22T07:32:22.687Z,7.75
2018-01-22T07:34:51.247Z,7.97
2018-01-22T07:37:19.727Z,7.84
2018-01-22T07:39:48.215Z,8.00
2018-01-22T07:42:17.215Z,7.82
2018-01-22T07:44:45.758Z,7.98
2018-01-22T07:47:14.243Z,7.83
2018-01-22T07:49:42.768Z,8.03
2018-01-22T07:52:11.244Z,7.96
2018-01-22T07:54:39.732Z,8.10
2018-01-22T07:57:08.303Z,8.20
2018-01-22T07:59:36.847Z,8.02
2018-01-22T08:02:06.098Z,8.38
2018-01-22T08:04:34.622Z,8.46
2018-01-22T08:07:04.055Z,8.78
2018-01-22T08:09:32.553Z,8.61
2018-01-22T08:12:01.275Z,8.67
2018-01-22T08:14:29.753Z,8.80
2018-01-22T08:16:58.240Z,8.96
2018-01-22T08:19:27.021Z,9.10
2018-01-22T08:21:55.671Z,9.27
2018-01-22T08:24:24.374Z,9.26
2018-01-22T08:26:53.347Z,9.04
2018-01-22T08:29:21.832Z,8.91
2018-01-22T08:31:50.311Z,9.08
2018-01-22T08:34:19.035Z,9.49
2018-01-22T08:36:47.646Z,9.47
2018-01-22T08:39:16.139Z,9.45
2018-01-22T08:41:44.677Z,9.56
2018-01-22T08:44:13.233Z,9.64
2018-01-22T08:46:41.763Z,9.64
2018-01-22T08:49:11.374Z,10.16
2018-01-22T08:51:40.836Z,10.09
2018-01-22T08:54:09.320Z,9.91
2018-01-22T08:56:38.052Z,10.01
2018-01-22T08:59:06.749Z,10.27
2018-01-22T09:01:35.250Z,10.08
2018-01-22T09:04:03.827Z,10.16
2018-01-22T09:06:32.435Z,10.47
2018-01-22T09:09:00.921Z,10.51
2018-01-22T09:11:29.906Z,10.50
2018-01-22T09:13:58.659Z,10.83
2018-01-22T09:16:27.147Z,10.94
2018-01-22T09:18:55.707Z,10.46
2018-01-22T09:21:24.312Z,10.74
2018-01-22T09:23:52.890Z,11.14
2018-01-22T09:26:21.682Z,10.62
2018-01-22T09:28:50.387Z,10.78
2018-01-22T09:31:18.896Z,10.68
2018-01-22T09:33:48.409Z,10.77
2018-01-22T09:36:16.901Z,11.11
2018-01-22T09:38:45.392Z,11.10
2018-01-22T09:41:13.922Z,10.83
2018-01-22T09:43:42.415Z,10.79
2018-01-22T09:46:11.882Z,11.22
2018-01-22T09:48:40.441Z,11.49
2018-01-22T09:51:09.044Z,11.25
2018-01-22T09:53:37.607Z,10.89
2018-01-22T09:56:07.177Z,10.75
2018-01-22T09:58:36.836Z,10.96
2018-01-22T10:01:05.315Z,11.27
2018-01-22T10:03:33.982Z,11.07
2018-01-22T10:06:02.849Z,10.86
2018-01-22T10:08:32.120Z,11.01
2018-01-22T10:11:00.655Z,10.99
2018-01-22T10:13:29.151Z,11.04
2018-01-22T10:15:57.748Z,11.08
2018-01-22T10:18:26.356Z,11.05
2018-01-22T10:20:54.855Z,11.25
2018-01-22T10:23:24.321Z,11.23
2018-01-22T10:25:53.313Z,11.20
2018-01-22T10:28:21.799Z,10.91
2018-01-22T10:30:50.407Z,11.07
2018-01-22T10:33:19.543Z,11.06
2018-01-22T10:35:48.028Z,10.79
2018-01-22T10:38:16.853Z,10.81
2018-01-22T10:40:45.559Z,11.11
2018-01-22T10:43:14.263Z,11.04
2018-01-22T10:45:44.331Z,10.85
2018-01-22T10:48:12.863Z,10.86
2018-01-22T10:50:42.323Z,11.16
2018-01-22T10:53:10.836Z,11.41
2018-01-22T10:55:40.342Z,11.36
2018-01-22T10:58:08.831Z,11.33
2018-01-22T11:00:38.089Z,11.38
2018-01-22T11:03:06.795Z,11.30
2018-01-22T11:05:35.350Z,11.21
2018-01-22T11:08:03.839Z,11.54
2018-01-22T11:10:32.378Z,11.44
2018-01-22T11:13:00.886Z,11.25
2018-01-22T11:15:35.373Z,11.16
2018-01-22T11:18:04.660Z,10.98
2018-01-22T11:20:33.148Z,11.04
2018-01-22T11:23:02.715Z,11.07
2018-01-22T11:25:31.211Z,11.21
2018-01-22T11:27:59.699Z,10.96
2018-01-22T11:30:28.255Z,10.54
2018-01-22T11:32:56.947Z,10.72
2018-01-22T11:35:25.438Z,10.99
2018-01-22T11:37:54.779Z,10.74
2018-01-22T11:40:23.332Z,10.70
2018-01-22T11:42:52.892Z,11.03
2018-01-22T11:45:21.435Z,10.92
2018-01-22T11:47:49.927Z,10.96
2018-01-22T11:50:18.482Z,10.98
2018-01-22T11:52:47.162Z,11.07
2018-01-22T11:55:15.954Z,10.68
2018-01-22T11:57:44.441Z,10.74
2018-01-22T12:00:13.326Z,10.79
2018-01-22T12:02:41.839Z,10.34
2018-01-22T12:05:10.471Z,10.52
2018-01-22T12:07:39.987Z,10.88
2018-01-22T12:10:08.553Z,10.37
2018-01-22T12:12:37.038Z,10.08
2018-01-22T12:15:05.675Z,10.58
2018-01-22T12:17:34.230Z,10.47
2018-01-22T12:20:02.731Z,10.47
2018-01-22T12:22:31.428Z,10.32
2018-01-22T12:24:59.927Z,10.40
2018-01-22T12:27:29.281Z,10.47
2018-01-22T12:29:58.652Z,10.43
2018-01-22T12:32:27.202Z,10.46
2018-01-22T12:34:55.696Z,10.37
2018-01-22T12:37:24.445Z,10.02
2018-01-22T12:39:52.955Z,10.63
2018-01-22T12:42:22.268Z,10.38
2018-01-22T12:44:51.573Z,10.59
2018-01-22T12:47:20.072Z,10.51
2018-01-22T12:49:48.576Z,10.44
2018-01-22T12:52:17.327Z,10.67
2018-01-22T12:54:46.797Z,10.64
2018-01-22T12:57:15.961Z,10.79
2018-01-22T12:59:45.095Z,11.32
2018-01-22T13:02:13.775Z,11.25
2018-01-22T13:04:42.344Z,10.92
2018-01-22T13:07:11.067Z,11.08
2018-01-22T13:09:39.584Z,11.10
2018-01-22T13:12:08.269Z,11.07
2018-01-22T13:14:37.434Z,11.56
2018-01-22T13:17:06.048Z,10.76
2018-01-22T13:19:34.733Z,10.55
2018-01-22T13:22:03.304Z,10.94
2018-01-22T13:24:31.805Z,11.16
2018-01-22T13:27:00.295Z,11.02
2018-01-22T13:29:29.251Z,11.56
2018-01-22T13:31:57.761Z,11.27
2018-01-22T13:34:27.033Z,11.31
2018-01-22T13:36:55.756Z,11.22
2018-01-22T13:39:25.036Z,11.25
2018-01-22T13:41:53.940Z,11.26
2018-01-22T13:44:22.799Z,10.89
2018-01-22T13:46:51.291Z,10.91
2018-01-22T13:49:19.788Z,10.69
2018-01-22T13:51:49.255Z,10.89
2018-01-22T13:54:17.756Z,10.85
2018-01-22T13:56:46.411Z,11.07
2018-01-22T13:59:15.609Z,11.13
2018-01-22T14:01:44.147Z,10.95
2018-01-22T14:04:13.407Z,10.78
2018-01-22T14:06:43.658Z,10.97
2018-01-22T14:09:12.351Z,10.72
2018-01-22T14:11:41.619Z,10.52
2018-01-22T14:14:10.606Z,10.41
2018-01-22T14:16:39.109Z,10.60
2018-01-22T14:19:07.705Z,10.52
2018-01-22T14:21:37.763Z,10.58
2018-01-22T14:24:06.437Z,10.34
2018-01-22T14:26:35.699Z,10.25
2018-01-22T14:29:05.318Z,10.47
2018-01-22T14:31:34.763Z,10.29
2018-01-22T14:34:03.546Z,10.45
2018-01-22T14:36:32.283Z,10.42
2018-01-22T14:39:00.861Z,10.32
2018-01-22T14:41:29.559Z,10.26
2018-01-22T14:43:58.144Z,10.49
2018-01-22T14:46:26.635Z,10.35
2018-01-22T14:48:55.155Z,10.03
2018-01-22T14:51:23.946Z,10.08
2018-01-22T14:53:53.219Z,10.03
2018-01-22T14:56:22.483Z,10.19
2018-01-22T14:58:51.157Z,10.21
2018-01-22T15:01:19.822Z,10.03
2018-01-22T15:03:48.324Z,10.13
2018-01-22T15:06:16.871Z,10.08
2018-01-22T15:08:45.380Z,9.98
2018-01-22T15:11:13.872Z,10.09
2018-01-22T15:13:43.199Z,10.00
2018-01-22T15:16:11.695Z,9.91
2018-01-22T15:18:40.183Z,9.77
2018-01-22T15:21:08.754Z,9.72
2018-01-22T15:23:37.481Z,9.89
2018-01-22T15:26:06.652Z,9.84
2018-01-22T15:28:35.503Z,10.03
2018-01-22T15:31:04.760Z,10.02
2018-01-22T15:33:33.283Z,9.86
2018-01-22T15:36:02.888Z,9.99
2018-01-22T15:38:32.314Z,9.56
2018-01-22T15:41:01.599Z,9.48
2018-01-22T15:43:31.131Z,9.60
2018-01-22T15:45:59.627Z,9.61
2018-01-22T15:48:28.150Z,9.40
2018-01-22T15:50:57.467Z,9.06
2018-01-22T15:53:26.753Z,9.47
2018-01-22T15:55:56.125Z,9.29
2018-01-22T15:58:24.923Z,9.21
2018-01-22T16:00:53.419Z,8.72
2018-01-22T16:03:22.085Z,8.70
2018-01-22T16:05:50.823Z,8.41
2018-01-22T16:08:20.078Z,8.56
2018-01-22T16:10:48.638Z,8.66
2018-01-22T16:13:17.655Z,8.80
2018-01-22T16:15:46.146Z,8.58
2018-01-22T16:18:15.359Z,8.57
2018-01-22T16:20:44.685Z,8.65
2018-01-22T16:23:13.364Z,8.65
2018-01-22T16:25:42.616Z,8.56
2018-01-22T16:28:11.469Z,8.60
2018-01-22T16:30:40.250Z,8.67
2018-01-22T16:33:08.935Z,8.63
2018-01-22T16:35:37.931Z,8.68
2018-01-22T16:38:06.433Z,8.61
2018-01-22T16:40:34.997Z,8.76
2018-01-22T16:43:03.552Z,8.71
2018-01-22T16:45:32.057Z,8.80
2018-01-22T16:48:00.554Z,8.46
2018-01-22T16:50:29.115Z,8.48
2018-01-22T16:52:57.688Z,8.34
2018-01-22T16:55:26.589Z,8.39
2018-01-22T16:57:55.323Z,8.57
2018-01-22T17:00:24.574Z,8.22
2018-01-22T17:02:53.213Z,8.33
2018-01-22T17:05:22.711Z,8.64
2018-01-22T17:07:51.990Z,8.56
2018-01-22T17:10:20.552Z,8.60
2018-01-22T17:12:49.220Z,8.36
2018-01-22T17:15:17.834Z,8.35
2018-01-22T17:17:46.471Z,8.38
2018-01-22T17:20:15.260Z,8.39
2018-01-22T17:22:43.994Z,8.45
2018-01-22T17:25:13.439Z,8.20
2018-01-22T17:27:42.743Z,8.02
2018-01-22T17:30:11.235Z,8.15
2018-01-22T17:32:39.736Z,8.10
2018-01-22T17:35:08.896Z,8.29
2018-01-22T17:37:38.151Z,8.15
2018-01-22T17:40:06.942Z,8.25
2018-01-22T17:42:36.136Z,8.08
2018-01-22T17:45:05.278Z,8.08
2018-01-22T17:47:34.548Z,8.13
2018-01-22T17:50:03.135Z,8.13
2018-01-22T17:52:31.811Z,8.04
2018-01-22T17:55:00.533Z,8.06
2018-01-22T17:57:30.255Z,8.31
2018-01-22T17:59:58.986Z,8.05
2018-01-22T18:02:27.678Z,8.03
2018-01-22T18:04:56.412Z,8.03
2018-01-22T18:07:24.904Z,7.93
2018-01-22T18:09:53.401Z,7.97
2018-01-22T18:12:22.371Z,7.68
2018-01-22T18:14:50.893Z,7.92
2018-01-22T18:17:19.420Z,7.86
2018-01-22T18:19:48.931Z,7.98
2018-01-22T18:22:18.191Z,7.83
2018-01-22T18:24:46.975Z,7.79
2018-01-22T18:27:15.605Z,7.88
2018-01-22T18:29:44.859Z,7.95
2018-01-22T18:32:13.430Z,7.86
2018-01-22T18:34:42.530Z,7.88
2018-01-22T18:37:11.119Z,7.86
2018-01-22T18:39:39.611Z,7.85
2018-01-22T18:42:08.151Z,7.97
2018-01-22T18:44:36.728Z,8.00
2018-01-22T18:47:05.455Z,8.02
2018-01-22T18:49:34.099Z,8.00
2018-01-22T18:52:02.775Z,7.80
2018-01-22T18:54:31.511Z,7.85
2018-01-22T18:57:00.231Z,7.77
2018-01-22T18:59:29.484Z,7.69
2018-01-22T19:01:58.031Z,7.84
2018-01-22T19:04:27.516Z,8.05
2018-01-22T19:06:56.882Z,7.84
2018-01-22T19:09:25.375Z,7.99
2018-01-22T19:11:54.919Z,7.72
2018-01-22T19:14:24.183Z,7.72
2018-01-22T19:16:52.751Z,7.74
2018-01-22T19:19:22.211Z,7.69
2018-01-22T19:21:50.711Z,7.79
2018-01-22T19:24:19.294Z,7.65
2018-01-22T19:26:48.079Z,7.55
2018-01-22T19:29:17.564Z,7.45
2018-01-22T19:31:46.077Z,7.87
2018-01-22T19:34:15.531Z,7.84
2018-01-22T19:36:44.026Z,7.67
2018-01-22T19:39:12.594Z,7.57
2018-01-22T19:41:41.400Z,7.63
2018-01-22T19:44:09.889Z,7.48
2018-01-22T19:46:38.675Z,7.66
2018-01-22T19:49:07.458Z,7.49
2018-01-22T19:51:35.952Z,7.36
2018-01-22T19:54:05.236Z,7.47
2018-01-22T19:56:33.821Z,7.46
2018-01-22T19:59:02.316Z,7.44
2018-01-22T20:01:30.816Z,7.43
2018-01-22T20:03:59.359Z,7.42
2018-01-22T20:06:27.872Z,7.36
2018-01-22T20:08:56.587Z,7.32
2018-01-22T20:11:25.235Z,7.20
2018-01-22T20:13:53.728Z,7.33
2018-01-22T20:16:22.267Z,7.26
2018-01-22T20:18:50.883Z,7.19
2018-01-22T20:21:19.396Z,7.41
2018-01-22T20:23:48.027Z,7.43
2018-01-22T20:26:16.567Z,7.43
2018-01-22T20:28:45.079Z,7.37
2018-01-22T20:31:13.874Z,7.36
2018-01-22T20:33:42.901Z,7.46
2018-01-22T20:36:11.394Z,7.35
2018-01-22T20:38:40.853Z,7.27
2018-01-22T20:41:09.649Z,7.17
2018-01-22T20:43:38.139Z,7.48
2018-01-22T20:46:06.639Z,7.35
2018-01-22T20:48:35.446Z,7.54
2018-01-22T20:51:04.785Z,7.30
2018-01-22T20:53:33.670Z,7.10
2018-01-22T20:56:03.201Z,7.23
2018-01-22T20:58:31.724Z,7.18
2018-01-22T21:01:01.361Z,7.08
2018-01-22T21:03:30.287Z,7.27
2018-01-22T21:05:58.765Z,7.10
2018-01-22T21:08:27.747Z,7.06
2018-01-22T21:10:56.547Z,7.20
2018-01-22T21:13:25.043Z,7.26
2018-01-22T21:15:53.552Z,7.15
2018-01-22T21:18:22.858Z,7.03
2018-01-22T21:20:52.278Z,6.87
2018-01-22T21:23:21.917Z,7.11
2018-01-22T21:25:51.010Z,7.03
2018-01-22T21:28:19.656Z,6.87
2018-01-22T21:30:48.290Z,6.74
2018-01-22T21:33:17.018Z,6.74
2018-01-22T21:35:46.323Z,6.89
2018-01-22T21:38:15.053Z,6.93
2018-01-22T21:40:43.595Z,6.71
2018-01-22T21:43:12.110Z,6.46
2018-01-22T21:45:40.607Z,6.39
2018-01-22T21:48:09.156Z,6.28
2018-01-22T21:50:37.816Z,6.06
2018-01-22T21:53:07.068Z,5.74
2018-01-22T21:55:35.647Z,5.67
2018-01-22T21:58:04.341Z,5.74
2018-01-22T22:00:32.883Z,5.63
2018-01-22T22:03:01.701Z,5.40
2018-01-22T22:05:30.196Z,5.26
2018-01-22T22:07:58.841Z,5.11
2018-01-22T22:10:27.408Z,4.97
2018-01-22T22:12:56.724Z,4.86
2018-01-22T22:15:25.245Z,4.80
2018-01-22T22:17:54.028Z,4.68
2018-01-22T22:20:22.517Z,4.64
2018-01-22T22:22:51.247Z,4.50
2018-01-22T22:25:20.831Z,4.30
2018-01-22T22:27:49.360Z,4.26
2018-01-22T22:30:17.932Z,4.20
2018-01-22T22:32:46.968Z,4.30
2018-01-22T22:35:15.651Z,4.38
2018-01-22T22:37:44.222Z,4.37
2018-01-22T22:40:12.958Z,4.42
2018-01-22T22:42:42.216Z,4.61
2018-01-22T22:45:10.713Z,4.65
2018-01-22T22:47:39.675Z,4.69
2018-01-22T22:50:08.379Z,4.89
2018-01-22T22:52:36.863Z,4.97
2018-01-22T22:55:05.593Z,4.83
2018-01-22T22:57:35.020Z,4.88
2018-01-22T23:00:04.070Z,4.81
2018-01-22T23:02:35.088Z,4.90
2018-01-22T23:05:03.874Z,4.89
2018-01-22T23:07:32.361Z,5.06
2018-01-22T23:10:01.284Z,5.22
2018-01-22T23:12:30.550Z,5.04
2018-01-22T23:14:59.040Z,5.13
2018-01-22T23:17:28.129Z,4.98
2018-01-22T23:19:56.619Z,5.13
2018-01-22T23:22:25.114Z,5.19
2018-01-22T23:24:55.452Z,5.36
2018-01-22T23:27:24.911Z,5.34
2018-01-22T23:29:53.496Z,5.23
2018-01-22T23:32:22.224Z,5.13
2018-01-22T23:34:51.011Z,5.07
2018-01-22T23:37:20.285Z,5.08
2018-01-22T23:39:48.848Z,5.18
2018-01-22T23:42:17.756Z,5.01
2018-01-22T23:44:46.201Z,4.95
2018-01-22T23:47:14.693Z,4.90
2018-01-22T23:49:43.130Z,4.78
2018-01-22T23:52:12.571Z,4.60
2018-01-22T23:54:41.267Z,4.54
2018-01-22T23:57:09.691Z,4.56
2018-01-22T23:59:38.476Z,4.67
